createdAt,value
2019-05-05T00:01:16.431Z,100145.17
2019-05-05T00:06:18.956Z,100141.23
2019-05-05T00:11:40.492Z,100141.68
2019-05-05T00:16:48.277Z,100143.50
2019-05-05T00:21:50.306Z,100145.83
2019-05-05T00:26:52.480Z,100144.16
2019-05-05T00:31:54.848Z,100149.98
2019-05-05T00:36:57.133Z,100157.48
2019-05-05T00:41:59.120Z,100154.16
2019-05-05T00:47:20.845Z,100158.70
2019-05-05T00:52:24.522Z,100172.69
2019-05-05T00:57:26.686Z,100190.97
2019-05-05T01:02:37.499Z,100197.16
2019-05-05T01:07:39.747Z,100205.58
2019-05-05T01:12:41.836Z,100214.49
2019-05-05T01:17:45.112Z,100222.69
2019-05-05T01:22:47.532Z,100232.09
2019-05-05T01:27:49.703Z,100230.85
2019-05-05T01:32:56.227Z,100237.44
2019-05-05T01:38:07.049Z,100230.46
2019-05-05T01:43:09.838Z,100229.62
2019-05-05T01:48:11.808Z,100233.95
2019-05-05T01:53:15.256Z,100247.48
2019-05-05T01:58:17.770Z,100259.66
2019-05-05T02:03:20.144Z,100265.64
2019-05-05T02:08:24.312Z,100267.68
2019-05-05T02:13:26.376Z,100282.41
2019-05-05T02:18:28.610Z,100277.56
2019-05-05T02:23:31.183Z,100290.16
2019-05-05T02:28:39.870Z,100292.70
2019-05-05T02:33:42.479Z,100298.39
2019-05-05T02:38:46.339Z,100318.63
2019-05-05T02:43:50.597Z,100318.63
2019-05-05T02:48:56.510Z,100319.66
2019-05-05T02:54:04.254Z,100328.33
2019-05-05T02:59:10.482Z,100343.42
2019-05-05T03:04:14.107Z,100340.41
2019-05-05T03:09:17.790Z,100347.54
2019-05-05T03:14:23.725Z,100352.12
2019-05-05T03:19:27.242Z,100349.25
2019-05-05T03:24:31.047Z,100359.13
2019-05-05T03:29:33.644Z,100370.66
2019-05-05T03:34:36.794Z,100376.34
2019-05-05T03:39:44.417Z,100378.98
2019-05-05T03:44:54.476Z,100379.87
2019-05-05T03:49:57.104Z,100392.77
2019-05-05T03:54:59.311Z,100389.42
2019-05-05T04:00:01.518Z,100389.65
2019-05-05T04:05:20.027Z,100386.37
2019-05-05T04:10:22.109Z,100382.73
2019-05-05T04:15:24.538Z,100391.49
2019-05-05T04:20:37.797Z,100389.58
2019-05-05T04:25:40.009Z,100384.78
2019-05-05T04:30:44.487Z,100389.73
2019-05-05T04:35:46.431Z,100402.63
2019-05-05T04:40:48.626Z,100397.09
2019-05-05T04:45:51.511Z,100396.69
2019-05-05T04:51:07.156Z,100404.59
2019-05-05T04:56:09.326Z,100401.88
2019-05-05T05:01:13.650Z,100402.37
2019-05-05T05:06:23.767Z,100408.07
2019-05-05T05:11:25.820Z,100414.08
2019-05-05T05:16:27.803Z,100409.22
2019-05-05T05:21:29.860Z,100414.96
2019-05-05T05:26:33.576Z,100431.34
2019-05-05T05:31:35.761Z,100430.73
2019-05-05T05:36:37.898Z,100435.94
2019-05-05T05:41:43.864Z,100442.84
2019-05-05T05:47:04.911Z,100446.26
2019-05-05T05:52:15.953Z,100463.89
2019-05-05T05:57:10.886Z,100470.39
2019-05-05T06:02:15.482Z,100470.50
2019-05-05T06:07:16.858Z,100473.58
2019-05-05T06:12:18.969Z,100481.50
2019-05-05T06:17:21.073Z,100480.52
2019-05-05T06:22:29.213Z,100493.80
2019-05-05T06:27:27.388Z,100491.92
2019-05-05T06:32:29.680Z,100498.16
2019-05-05T06:37:31.839Z,100502.25
2019-05-05T06:42:44.411Z,100491.72
2019-05-05T06:47:46.459Z,100502.32
2019-05-05T06:52:48.458Z,100509.59
2019-05-05T06:57:50.616Z,100499.88
2019-05-05T07:02:54.119Z,100501.89
2019-05-05T07:07:56.240Z,100506.16
2019-05-05T07:12:58.328Z,100506.13
2019-05-05T07:18:01.160Z,100508.19
2019-05-05T07:23:05.434Z,100510.20
2019-05-05T07:28:07.704Z,100507.84
2019-05-05T07:33:09.770Z,100497.22
2019-05-05T07:38:13.853Z,100509.08
2019-05-05T07:43:16.057Z,100523.93
2019-05-05T07:48:18.156Z,100518.22
2019-05-05T07:53:20.350Z,100530.51
2019-05-05T07:58:24.209Z,100528.97
2019-05-05T08:03:26.241Z,100541.27
2019-05-05T08:08:28.377Z,100549.25
2019-05-05T08:13:30.548Z,100547.45
2019-05-05T08:18:50.441Z,100555.84
2019-05-05T08:24:10.954Z,100559.17
2019-05-05T08:29:31.111Z,100560.48
2019-05-05T08:34:34.103Z,100560.90
2019-05-05T08:39:36.358Z,100553.30
2019-05-05T08:44:38.434Z,100551.02
2019-05-05T08:49:40.402Z,100553.88
2019-05-05T08:54:44.476Z,100556.86
2019-05-05T08:59:46.422Z,100561.48
2019-05-05T09:04:48.528Z,100567.27
2019-05-05T09:09:51.597Z,100573.73
2019-05-05T09:14:53.963Z,100576.08
2019-05-05T09:19:56.120Z,100568.80
2019-05-05T09:25:06.001Z,100558.98
2019-05-05T09:30:09.545Z,100569.50
2019-05-05T09:35:13.892Z,100570.02
2019-05-05T09:40:20.869Z,100559.98
2019-05-05T09:45:24.445Z,100558.94
2019-05-05T09:50:26.800Z,100562.86
2019-05-05T09:55:29.224Z,100559.40
2019-05-05T10:00:35.361Z,100558.10
2019-05-05T10:05:37.450Z,100562.88
2019-05-05T10:10:39.565Z,100556.18
2019-05-05T10:15:43.772Z,100569.70
2019-05-05T10:20:45.883Z,100575.17
2019-05-05T10:25:49.924Z,100565.21
2019-05-05T10:30:53.850Z,100566.81
2019-05-05T10:35:56.173Z,100578.86
2019-05-05T10:40:58.503Z,100579.96
2019-05-05T10:46:00.821Z,100584.52
2019-05-05T10:51:04.202Z,100582.56
2019-05-05T10:56:06.704Z,100573.72
2019-05-05T11:01:08.786Z,100571.10
2019-05-05T11:06:11.213Z,100572.87
2019-05-05T11:11:13.760Z,100565.24
2019-05-05T11:16:15.910Z,100564.58
2019-05-05T11:21:17.877Z,100566.11
2019-05-05T11:26:20.292Z,100562.52
2019-05-05T11:31:23.957Z,100560.17
2019-05-05T11:36:30.528Z,100564.68
2019-05-05T11:41:33.077Z,100557.30
2019-05-05T11:46:35.359Z,100560.77
2019-05-05T11:51:37.454Z,100572.64
2019-05-05T11:56:39.753Z,100572.30
2019-05-05T12:01:43.869Z,100575.19
2019-05-05T12:06:46.212Z,100570.09
2019-05-05T12:11:48.663Z,100571.27
2019-05-05T12:16:50.793Z,100570.33
2019-05-05T12:21:54.790Z,100565.23
2019-05-05T12:27:15.700Z,100571.83
2019-05-05T12:32:18.436Z,100561.69
2019-05-05T12:37:20.988Z,100567.61
2019-05-05T12:42:24.201Z,100579.72
2019-05-05T12:47:52.112Z,100576.52
2019-05-05T12:52:54.948Z,100575.19
2019-05-05T12:57:57.242Z,100566.86
2019-05-05T13:02:59.276Z,100571.91
2019-05-05T13:08:01.421Z,100558.70
2019-05-05T13:13:04.609Z,100559.64
2019-05-05T13:18:06.785Z,100566.17
2019-05-05T13:23:40.625Z,100558.66
2019-05-05T13:28:43.728Z,100554.80
2019-05-05T13:33:46.888Z,100550.97
2019-05-05T13:38:51.924Z,100549.33
2019-05-05T13:43:54.959Z,100552.67
2019-05-05T13:49:16.837Z,100557.53
2019-05-05T13:54:19.133Z,100562.03
2019-05-05T13:59:21.279Z,100554.20
2019-05-05T14:04:23.464Z,100556.66
2019-05-05T14:09:25.689Z,100557.20
2019-05-05T14:14:27.760Z,100560.07
2019-05-05T14:19:29.842Z,100560.27
2019-05-05T14:24:39.741Z,100548.23
2019-05-05T14:30:04.767Z,100550.77
2019-05-05T14:35:36.015Z,100554.39
2019-05-05T14:40:38.238Z,100541.05
2019-05-05T14:45:40.465Z,100532.03
2019-05-05T14:50:43.824Z,100529.17
2019-05-05T14:55:46.113Z,100540.09
2019-05-05T15:00:48.349Z,100537.70
2019-05-05T15:05:57.588Z,100541.19
2019-05-05T15:11:25.784Z,100533.02
2019-05-05T15:16:29.041Z,100534.91
2019-05-05T15:21:31.365Z,100538.74
2019-05-05T15:26:34.447Z,100546.00
2019-05-05T15:31:36.773Z,100545.52
2019-05-05T15:36:38.943Z,100544.03
2019-05-05T15:41:41.990Z,100544.16
2019-05-05T15:46:44.513Z,100536.05
2019-05-05T15:51:46.785Z,100539.33
2019-05-05T15:57:02.320Z,100536.66
2019-05-05T16:01:54.842Z,100545.37
2019-05-05T16:06:57.192Z,100549.02
2019-05-05T16:11:59.391Z,100545.01
2019-05-05T16:17:24.209Z,100554.70
2019-05-05T16:22:34.677Z,100552.96
2019-05-05T16:27:37.105Z,100550.09
2019-05-05T16:32:39.408Z,100551.29
2019-05-05T16:37:42.651Z,100555.82
2019-05-05T16:42:45.053Z,100557.73
2019-05-05T16:47:47.153Z,100553.97
2019-05-05T16:52:56.018Z,100550.77
2019-05-05T16:57:58.724Z,100555.52
2019-05-05T17:03:04.070Z,100553.91
2019-05-05T17:08:06.180Z,100552.03
2019-05-05T17:13:18.275Z,100560.78
2019-05-05T17:18:35.795Z,100564.70
2019-05-05T17:23:36.977Z,100560.63
2019-05-05T17:28:39.225Z,100560.46
2019-05-05T17:33:44.199Z,100563.36
2019-05-05T17:38:46.602Z,100560.27
2019-05-05T17:44:03.508Z,100559.88
2019-05-05T17:54:54.724Z,100563.67
2019-05-05T17:59:56.897Z,100566.66
2019-05-05T18:04:59.206Z,100568.64
2019-05-05T18:15:54.189Z,100574.48
2019-05-05T18:20:56.151Z,100570.21
2019-05-05T18:25:58.680Z,100569.34
2019-05-05T18:31:01.437Z,100574.01
2019-05-05T18:36:04.405Z,100573.15
2019-05-05T18:41:14.057Z,100581.52
2019-05-05T18:46:16.294Z,100586.44
2019-05-05T18:51:18.385Z,100595.20
2019-05-05T18:56:20.628Z,100596.49
2019-05-05T19:01:44.451Z,100599.77
2019-05-05T19:07:21.393Z,100590.61
2019-05-05T19:12:24.374Z,100600.16
2019-05-05T19:17:28.718Z,100598.23
2019-05-05T19:22:30.839Z,100601.32
2019-05-05T19:27:34.258Z,100606.60
2019-05-05T19:32:36.923Z,100600.57
2019-05-05T19:37:39.461Z,100612.61
2019-05-05T19:42:41.712Z,100615.08
2019-05-05T19:47:44.029Z,100606.84
2019-05-05T19:52:46.690Z,100612.53
2019-05-05T19:57:49.163Z,100612.11
2019-05-05T20:03:03.897Z,100610.80
2019-05-05T20:07:55.525Z,100614.37
2019-05-05T20:12:57.778Z,100618.06
2019-05-05T20:18:04.526Z,100617.51
2019-05-05T20:23:07.081Z,100617.92
2019-05-05T20:28:09.160Z,100608.72
2019-05-05T20:33:18.965Z,100610.84
2019-05-05T20:38:47.629Z,100613.09
2019-05-05T20:43:50.549Z,100610.56
2019-05-05T20:48:54.450Z,100615.48
2019-05-05T20:53:57.121Z,100606.91
2019-05-05T20:59:00.476Z,100607.06
2019-05-05T21:04:04.588Z,100606.78
2019-05-05T21:09:06.999Z,100613.53
2019-05-05T21:14:09.438Z,100611.08
2019-05-05T21:19:13.954Z,100611.20
2019-05-05T21:24:15.613Z,100612.17
2019-05-05T21:29:18.127Z,100608.22
2019-05-05T21:34:20.793Z,100603.16
2019-05-05T21:39:24.901Z,100606.55
2019-05-05T21:44:26.995Z,100605.41
2019-05-05T21:49:29.123Z,100603.44
2019-05-05T21:54:56.523Z,100614.09
2019-05-05T21:59:59.075Z,100607.77
2019-05-05T22:05:01.186Z,100611.75
2019-05-05T22:10:04.476Z,100605.98
2019-05-05T22:15:07.434Z,100604.75
2019-05-05T22:20:17.845Z,100608.11
2019-05-05T22:25:19.834Z,100601.21
2019-05-05T22:30:23.683Z,100598.20
2019-05-05T22:35:26.109Z,100591.97
2019-05-05T22:40:28.313Z,100588.45
2019-05-05T22:45:30.846Z,100586.97
2019-05-05T22:50:34.092Z,100588.64
2019-05-05T22:55:37.666Z,100589.38
2019-05-05T23:00:39.884Z,100591.21
2019-05-05T23:05:50.688Z,100591.28
2019-05-05T23:10:54.429Z,100592.19
2019-05-05T23:16:04.156Z,100590.25
2019-05-05T23:21:31.540Z,100596.86
2019-05-05T23:26:35.965Z,100601.56
2019-05-05T23:31:38.267Z,100599.44
2019-05-05T23:36:40.303Z,100596.75
2019-05-05T23:41:42.503Z,100599.64
2019-05-05T23:46:44.650Z,100598.45
2019-05-05T23:51:46.778Z,100605.19
2019-05-05T23:56:48.892Z,100606.39
